sensor_id;sensor_type;location;lat;lon;timestamp;pressure;altitude;pressure_sealevel;temperature;humidity
6453;BME280;3259;51.080;13.712;2023-11-19T00:00:09;100390.09;;;23.81;34.99
6453;BME280;3259;51.080;13.712;2023-11-19T00:03:01;100366.75;;;23.83;35.40
6453;BME280;3259;51.080;13.712;2023-11-19T00:05:50;100359.63;;;23.83;35.30
6453;BME280;3259;51.080;13.712;2023-11-19T00:08:39;100355.19;;;23.76;35.51
6453;BME280;3259;51.080;13.712;2023-11-19T00:11:28;100340.50;;;23.80;35.51
6453;BME280;3259;51.080;13.712;2023-11-19T00:14:16;100312.59;;;23.76;35.51
6453;BME280;3259;51.080;13.712;2023-11-19T00:17:05;100317.56;;;23.79;35.33
6453;BME280;3259;51.080;13.712;2023-11-19T00:19:55;100316.41;;;23.88;35.49
6453;BME280;3259;51.080;13.712;2023-11-19T00:22:44;100325.91;;;23.76;35.29
6453;BME280;3259;51.080;13.712;2023-11-19T00:25:36;100325.91;;;23.76;35.29
6453;BME280;3259;51.080;13.712;2023-11-19T00:28:25;100301.06;;;23.69;35.35
6453;BME280;3259;51.080;13.712;2023-11-19T00:31:15;100301.19;;;23.82;35.00
6453;BME280;3259;51.080;13.712;2023-11-19T00:34:03;100309.28;;;23.74;35.58
6453;BME280;3259;51.080;13.712;2023-11-19T00:36:54;100298.63;;;23.74;35.36
6453;BME280;3259;51.080;13.712;2023-11-19T00:39:43;100290.28;;;23.77;35.30
6453;BME280;3259;51.080;13.712;2023-11-19T00:42:32;100285.69;;;23.85;35.14
6453;BME280;3259;51.080;13.712;2023-11-19T00:45:21;100282.94;;;23.79;35.12
6453;BME280;3259;51.080;13.712;2023-11-19T00:48:10;100276.19;;;23.83;35.38
6453;BME280;3259;51.080;13.712;2023-11-19T00:50:58;100270.34;;;23.73;35.51
6453;BME280;3259;51.080;13.712;2023-11-19T00:53:48;100271.59;;;23.70;35.28
6453;BME280;3259;51.080;13.712;2023-11-19T00:56:37;100258.44;;;23.69;35.58
6453;BME280;3259;51.080;13.712;2023-11-19T00:59:26;100251.53;;;23.74;35.24
6453;BME280;3259;51.080;13.712;2023-11-19T01:02:16;100251.09;;;23.71;35.30
6453;BME280;3259;51.080;13.712;2023-11-19T01:05:08;100245.38;;;23.74;35.26
6453;BME280;3259;51.080;13.712;2023-11-19T01:07:57;100226.38;;;23.77;35.24
6453;BME280;3259;51.080;13.712;2023-11-19T01:10:47;100220.78;;;23.72;35.30
6453;BME280;3259;51.080;13.712;2023-11-19T01:13:35;100189.16;;;23.62;35.33
6453;BME280;3259;51.080;13.712;2023-11-19T01:16:26;100205.38;;;23.67;35.56
6453;BME280;3259;51.080;13.712;2023-11-19T01:19:15;100188.81;;;23.72;35.24
6453;BME280;3259;51.080;13.712;2023-11-19T01:22:04;100187.16;;;23.71;35.09
6453;BME280;3259;51.080;13.712;2023-11-19T01:24:53;100202.53;;;23.69;35.08
6453;BME280;3259;51.080;13.712;2023-11-19T01:27:43;100194.16;;;23.72;35.38
6453;BME280;3259;51.080;13.712;2023-11-19T01:30:31;100183.09;;;23.75;35.50
6453;BME280;3259;51.080;13.712;2023-11-19T01:33:20;100167.91;;;23.69;35.32
6453;BME280;3259;51.080;13.712;2023-11-19T01:36:12;100169.41;;;23.78;35.32
6453;BME280;3259;51.080;13.712;2023-11-19T01:39:01;100163.03;;;23.72;35.13
6453;BME280;3259;51.080;13.712;2023-11-19T01:41:51;100145.81;;;23.75;35.04
6453;BME280;3259;51.080;13.712;2023-11-19T01:44:42;100147.09;;;23.79;34.97
6453;BME280;3259;51.080;13.712;2023-11-19T01:47:31;100147.09;;;23.79;35.08
6453;BME280;3259;51.080;13.712;2023-11-19T01:50:20;100135.41;;;23.80;35.07
6453;BME280;3259;51.080;13.712;2023-11-19T01:53:10;100127.03;;;23.83;35.10
6453;BME280;3259;51.080;13.712;2023-11-19T01:55:58;100116.78;;;23.80;35.03
6453;BME280;3259;51.080;13.712;2023-11-19T01:58:48;100107.56;;;23.82;35.38
6453;BME280;3259;51.080;13.712;2023-11-19T02:01:40;100106.13;;;23.80;35.44
6453;BME280;3259;51.080;13.712;2023-11-19T02:04:29;100090.91;;;23.74;35.02
6453;BME280;3259;51.080;13.712;2023-11-19T02:07:18;100079.16;;;23.89;34.99
6453;BME280;3259;51.080;13.712;2023-11-19T02:10:08;100081.59;;;23.84;35.16
6453;BME280;3259;51.080;13.712;2023-11-19T02:13:00;100072.13;;;23.82;35.05
6453;BME280;3259;51.080;13.712;2023-11-19T02:15:53;100071.34;;;23.88;35.12
6453;BME280;3259;51.080;13.712;2023-11-19T02:18:43;100062.75;;;23.92;34.91
6453;BME280;3259;51.080;13.712;2023-11-19T02:21:32;100040.13;;;23.75;35.26
6453;BME280;3259;51.080;13.712;2023-11-19T02:24:22;100025.78;;;23.76;35.25
6453;BME280;3259;51.080;13.712;2023-11-19T02:27:16;100022.94;;;23.78;35.52
6453;BME280;3259;51.080;13.712;2023-11-19T02:30:11;100019.88;;;23.81;35.20
6453;BME280;3259;51.080;13.712;2023-11-19T02:33:01;100009.97;;;23.75;35.33
6453;BME280;3259;51.080;13.712;2023-11-19T02:35:52;100015.13;;;23.76;35.26
6453;BME280;3259;51.080;13.712;2023-11-19T02:38:41;100003.88;;;23.81;35.18
6453;BME280;3259;51.080;13.712;2023-11-19T02:41:30;100001.22;;;23.81;35.17
6453;BME280;3259;51.080;13.712;2023-11-19T02:44:18;100001.59;;;23.71;35.22
6453;BME280;3259;51.080;13.712;2023-11-19T02:47:08;99989.66;;;23.67;35.17
6453;BME280;3259;51.080;13.712;2023-11-19T02:49:57;99982.72;;;23.73;35.05
6453;BME280;3259;51.080;13.712;2023-11-19T02:52:46;99987.66;;;23.76;35.25
6453;BME280;3259;51.080;13.712;2023-11-19T02:55:35;99982.72;;;23.73;35.31
6453;BME280;3259;51.080;13.712;2023-11-19T02:58:25;99957.75;;;23.74;35.37
6453;BME280;3259;51.080;13.712;2023-11-19T03:01:21;99960.22;;;23.75;35.47
6453;BME280;3259;51.080;13.712;2023-11-19T03:04:18;99950.38;;;23.76;35.04
6453;BME280;3259;51.080;13.712;2023-11-19T03:07:07;99944.22;;;23.69;35.38
6453;BME280;3259;51.080;13.712;2023-11-19T03:09:56;99927.41;;;23.68;35.11
6453;BME280;3259;51.080;13.712;2023-11-19T03:12:45;99926.38;;;23.69;35.46
6453;BME280;3259;51.080;13.712;2023-11-19T03:15:33;99922.09;;;23.75;35.44
6453;BME280;3259;51.080;13.712;2023-11-19T03:18:22;99919.22;;;23.70;35.16
6453;BME280;3259;51.080;13.712;2023-11-19T03:21:12;99919.03;;;23.65;35.37
6453;BME280;3259;51.080;13.712;2023-11-19T03:24:01;99918.81;;;23.73;35.36
6453;BME280;3259;51.080;13.712;2023-11-19T03:26:49;99894.22;;;23.71;35.55
6453;BME280;3259;51.080;13.712;2023-11-19T03:29:38;99888.47;;;23.67;35.38
6453;BME280;3259;51.080;13.712;2023-11-19T03:32:27;99890.97;;;23.69;35.19
6453;BME280;3259;51.080;13.712;2023-11-19T03:35:15;99896.72;;;23.72;34.99
6453;BME280;3259;51.080;13.712;2023-11-19T03:38:05;99894.66;;;23.74;35.55
6453;BME280;3259;51.080;13.712;2023-11-19T03:40:54;99871.91;;;23.72;35.40
6453;BME280;3259;51.080;13.712;2023-11-19T03:43:43;99881.94;;;23.70;35.07
6453;BME280;3259;51.080;13.712;2023-11-19T03:46:31;99871.09;;;23.65;35.23
6453;BME280;3259;51.080;13.712;2023-11-19T03:49:20;99860.44;;;23.65;35.41
6453;BME280;3259;51.080;13.712;2023-11-19T03:52:11;99846.31;;;23.71;35.11
6453;BME280;3259;51.080;13.712;2023-11-19T03:55:08;99841.38;;;23.68;35.26
6453;BME280;3259;51.080;13.712;2023-11-19T03:57:57;99830.50;;;23.63;35.48
6453;BME280;3259;51.080;13.712;2023-11-19T04:00:46;99828.06;;;23.68;35.30
6453;BME280;3259;51.080;13.712;2023-11-19T04:03:34;99828.28;;;23.73;35.17
6453;BME280;3259;51.080;13.712;2023-11-19T04:06:23;99835.66;;;23.71;35.17
6453;BME280;3259;51.080;13.712;2023-11-19T04:09:12;99821.53;;;23.70;35.40
6453;BME280;3259;51.080;13.712;2023-11-19T04:12:02;99802.66;;;23.72;35.12
6453;BME280;3259;51.080;13.712;2023-11-19T04:14:51;99814.16;;;23.66;35.36
6453;BME280;3259;51.080;13.712;2023-11-19T04:17:43;99811.06;;;23.69;35.59
6453;BME280;3259;51.080;13.712;2023-11-19T04:20:32;99804.09;;;23.68;35.27
6453;BME280;3259;51.080;13.712;2023-11-19T04:23:20;99809.44;;;23.74;35.00
6453;BME280;3259;51.080;13.712;2023-11-19T04:26:09;99814.34;;;23.71;35.51
6453;BME280;3259;51.080;13.712;2023-11-19T04:28:59;99797.34;;;23.72;35.22
6453;BME280;3259;51.080;13.712;2023-11-19T04:31:48;99790.19;;;23.66;35.28
6453;BME280;3259;51.080;13.712;2023-11-19T04:34:37;99790.78;;;23.68;35.35
6453;BME280;3259;51.080;13.712;2023-11-19T04:37:26;99789.78;;;23.69;35.19
6453;BME280;3259;51.080;13.712;2023-11-19T04:40:15;99787.28;;;23.61;35.24
6453;BME280;3259;51.080;13.712;2023-11-19T04:43:05;99776.66;;;23.67;35.09
6453;BME280;3259;51.080;13.712;2023-11-19T04:45:55;99782.81;;;23.68;35.63
6453;BME280;3259;51.080;13.712;2023-11-19T04:48:44;99771.72;;;23.64;35.63
6453;BME280;3259;51.080;13.712;2023-11-19T04:51:38;99759.03;;;23.60;35.50
6453;BME280;3259;51.080;13.712;2023-11-19T04:54:27;99759.03;;;23.60;35.57
6453;BME280;3259;51.080;13.712;2023-11-19T04:57:16;99746.13;;;23.57;35.61
6453;BME280;3259;51.080;13.712;2023-11-19T05:00:06;99745.91;;;23.58;35.75
6453;BME280;3259;51.080;13.712;2023-11-19T05:02:59;99749.81;;;23.69;35.28
6453;BME280;3259;51.080;13.712;2023-11-19T05:05:48;99747.16;;;23.69;35.29
6453;BME280;3259;51.080;13.712;2023-11-19T05:08:37;99731.78;;;23.64;35.27
6453;BME280;3259;51.080;13.712;2023-11-19T05:11:25;99741.41;;;23.72;35.57
6453;BME280;3259;51.080;13.712;2023-11-19T05:14:15;99738.34;;;23.62;35.72
6453;BME280;3259;51.080;13.712;2023-11-19T05:17:05;99730.78;;;23.65;35.54
6453;BME280;3259;51.080;13.712;2023-11-19T05:19:56;99727.09;;;23.73;35.08
6453;BME280;3259;51.080;13.712;2023-11-19T05:22:45;99731.00;;;23.77;35.25
6453;BME280;3259;51.080;13.712;2023-11-19T05:25:34;99716.25;;;23.81;35.38
6453;BME280;3259;51.080;13.712;2023-11-19T05:28:22;99719.69;;;23.75;35.49
6453;BME280;3259;51.080;13.712;2023-11-19T05:31:13;99704.56;;;23.75;35.28
6453;BME280;3259;51.080;13.712;2023-11-19T05:34:02;99709.06;;;23.75;35.27
6453;BME280;3259;51.080;13.712;2023-11-19T05:36:52;99698.00;;;23.78;35.05
6453;BME280;3259;51.080;13.712;2023-11-19T05:39:41;99702.50;;;23.77;35.13
6453;BME280;3259;51.080;13.712;2023-11-19T05:42:30;99696.41;;;23.83;34.96
6453;BME280;3259;51.080;13.712;2023-11-19T05:45:19;99684.09;;;23.82;35.26
6453;BME280;3259;51.080;13.712;2023-11-19T05:48:07;99695.13;;;23.79;35.25
6453;BME280;3259;51.080;13.712;2023-11-19T05:50:56;99688.56;;;23.82;35.06
6453;BME280;3259;51.080;13.712;2023-11-19T05:53:46;99677.91;;;23.82;35.06
6453;BME280;3259;51.080;13.712;2023-11-19T05:56:37;99685.75;;;23.83;35.04
6453;BME280;3259;51.080;13.712;2023-11-19T05:59:26;99682.66;;;23.80;35.23
6453;BME280;3259;51.080;13.712;2023-11-19T06:02:14;99669.78;;;23.83;35.28
6453;BME280;3259;51.080;13.712;2023-11-19T06:05:04;99668.91;;;23.83;35.29
6453;BME280;3259;51.080;13.712;2023-11-19T06:07:53;99659.28;;;23.82;35.34
6453;BME280;3259;51.080;13.712;2023-11-19T06:10:44;99641.44;;;23.76;35.16
6453;BME280;3259;51.080;13.712;2023-11-19T06:13:34;99647.19;;;23.73;35.27
6453;BME280;3259;51.080;13.712;2023-11-19T06:16:23;99635.31;;;23.69;35.60
6453;BME280;3259;51.080;13.712;2023-11-19T06:19:12;99639.03;;;23.68;35.29
6453;BME280;3259;51.080;13.712;2023-11-19T06:22:00;99612.41;;;23.68;35.42
6453;BME280;3259;51.080;13.712;2023-11-19T06:24:49;99624.25;;;23.72;35.62
6453;BME280;3259;51.080;13.712;2023-11-19T06:27:40;99605.44;;;23.67;35.53
6453;BME280;3259;51.080;13.712;2023-11-19T06:30:28;99614.22;;;23.61;35.75
6453;BME280;3259;51.080;13.712;2023-11-19T06:33:19;99618.53;;;23.62;35.58
6453;BME280;3259;51.080;13.712;2023-11-19T06:36:09;99616.88;;;23.61;35.56
6453;BME280;3259;51.080;13.712;2023-11-19T06:38:57;99607.28;;;23.60;35.61
6453;BME280;3259;51.080;13.712;2023-11-19T06:41:46;99622.03;;;23.56;35.93
6453;BME280;3259;51.080;13.712;2023-11-19T06:44:37;99625.91;;;23.66;35.41
6453;BME280;3259;51.080;13.712;2023-11-19T06:47:26;99607.25;;;23.66;35.63
6453;BME280;3259;51.080;13.712;2023-11-19T06:50:15;99605.44;;;23.67;35.67
6453;BME280;3259;51.080;13.712;2023-11-19T06:53:04;99607.50;;;23.65;35.52
6453;BME280;3259;51.080;13.712;2023-11-19T06:55:57;99598.66;;;23.71;35.51
6453;BME280;3259;51.080;13.712;2023-11-19T06:58:45;99611.97;;;23.71;35.24
6453;BME280;3259;51.080;13.712;2023-11-19T07:01:36;99598.84;;;23.69;35.32
6453;BME280;3259;51.080;13.712;2023-11-19T07:04:25;99609.94;;;23.66;35.84
6453;BME280;3259;51.080;13.712;2023-11-19T07:07:14;99605.41;;;23.73;35.71
6453;BME280;3259;51.080;13.712;2023-11-19T07:10:03;99607.25;;;23.66;35.87
6453;BME280;3259;51.080;13.712;2023-11-19T07:12:55;99610.34;;;23.70;35.74
6453;BME280;3259;51.080;13.712;2023-11-19T07:15:44;99612.56;;;23.73;35.47
6453;BME280;3259;51.080;13.712;2023-11-19T07:18:34;99614.44;;;23.72;35.32
6453;BME280;3259;51.080;13.712;2023-11-19T07:21:23;99634.91;;;23.72;35.28
6453;BME280;3259;51.080;13.712;2023-11-19T07:24:11;99617.47;;;23.76;35.39
6453;BME280;3259;51.080;13.712;2023-11-19T07:27:01;99614.44;;;23.72;35.45
6453;BME280;3259;51.080;13.712;2023-11-19T07:29:50;99635.13;;;23.70;35.75
6453;BME280;3259;51.080;13.712;2023-11-19T07:32:39;99621.00;;;23.70;35.60
6453;BME280;3259;51.080;13.712;2023-11-19T07:35:29;99622.44;;;23.72;35.33
6453;BME280;3259;51.080;13.712;2023-11-19T07:38:18;99609.13;;;23.66;35.57
6453;BME280;3259;51.080;13.712;2023-11-19T07:41:07;99614.84;;;23.89;34.23
6453;BME280;3259;51.080;13.712;2023-11-19T07:44:00;99609.31;;;23.71;34.49
6453;BME280;3259;51.080;13.712;2023-11-19T07:46:48;99614.03;;;23.69;35.04
6453;BME280;3259;51.080;13.712;2023-11-19T07:49:37;99613.59;;;23.72;35.10
6453;BME280;3259;51.080;13.712;2023-11-19T07:52:27;99617.31;;;23.58;35.65
6453;BME280;3259;51.080;13.712;2023-11-19T07:55:16;99622.63;;;23.58;35.35
6453;BME280;3259;51.080;13.712;2023-11-19T07:58:06;99609.94;;;23.60;35.71
6453;BME280;3259;51.080;13.712;2023-11-19T08:00:54;99624.88;;;23.67;35.59
6453;BME280;3259;51.080;13.712;2023-11-19T08:03:43;99611.56;;;23.67;35.43
6453;BME280;3259;51.080;13.712;2023-11-19T08:06:35;99630.44;;;23.66;35.77
6453;BME280;3259;51.080;13.712;2023-11-19T08:09:25;99626.31;;;23.70;35.56
6453;BME280;3259;51.080;13.712;2023-11-19T08:12:13;99621.00;;;23.70;35.65
6453;BME280;3259;51.080;13.712;2023-11-19T08:15:04;99619.38;;;23.56;35.73
6453;BME280;3259;51.080;13.712;2023-11-19T08:17:53;99615.69;;;23.57;35.83
6453;BME280;3259;51.080;13.712;2023-11-19T08:20:42;99602.97;;;23.59;35.77
6453;BME280;3259;51.080;13.712;2023-11-19T08:23:31;99607.69;;;23.63;35.72
6453;BME280;3259;51.080;13.712;2023-11-19T08:26:21;99605.00;;;23.70;35.84
6453;BME280;3259;51.080;13.712;2023-11-19T08:29:10;99592.72;;;23.69;35.79
6453;BME280;3259;51.080;13.712;2023-11-19T08:32:00;99610.94;;;23.72;35.92
6453;BME280;3259;51.080;13.712;2023-11-19T08:34:50;99605.41;;;23.73;35.53
6453;BME280;3259;51.080;13.712;2023-11-19T08:37:39;99599.25;;;23.73;35.80
6453;BME280;3259;51.080;13.712;2023-11-19T08:40:28;99595.59;;;23.67;35.93
6453;BME280;3259;51.080;13.712;2023-11-19T08:43:19;99598.22;;;23.74;35.58
6453;BME280;3259;51.080;13.712;2023-11-19T08:46:10;99586.78;;;23.80;35.55
6453;BME280;3259;51.080;13.712;2023-11-19T08:48:59;99595.19;;;23.77;35.88
6453;BME280;3259;51.080;13.712;2023-11-19T08:51:48;99599.25;;;23.86;35.37
6453;BME280;3259;51.080;13.712;2023-11-19T08:54:36;99614.03;;;23.75;36.06
6453;BME280;3259;51.080;13.712;2023-11-19T08:57:25;99615.84;;;23.88;35.57
6453;BME280;3259;51.080;13.712;2023-11-19T09:00:15;99618.94;;;23.85;35.77
6453;BME280;3259;51.080;13.712;2023-11-19T09:03:04;99616.06;;;23.86;35.72
6453;BME280;3259;51.080;13.712;2023-11-19T09:05:54;99614.44;;;23.92;35.80
6453;BME280;3259;51.080;13.712;2023-11-19T09:08:42;99623.84;;;23.94;35.59
6453;BME280;3259;51.080;13.712;2023-11-19T09:11:31;99617.28;;;23.97;35.79
6453;BME280;3259;51.080;13.712;2023-11-19T09:14:20;99615.47;;;23.91;35.82
6453;BME280;3259;51.080;13.712;2023-11-19T09:17:12;99609.91;;;23.86;35.59
6453;BME280;3259;51.080;13.712;2023-11-19T09:20:01;99617.28;;;23.90;35.52
6453;BME280;3259;51.080;13.712;2023-11-19T09:22:49;99615.22;;;23.92;35.78
6453;BME280;3259;51.080;13.712;2023-11-19T09:25:39;99620.38;;;23.94;35.56
6453;BME280;3259;51.080;13.712;2023-11-19T09:28:31;99623.84;;;23.88;35.82
6453;BME280;3259;51.080;13.712;2023-11-19T09:31:20;99622.59;;;23.97;35.57
6453;BME280;3259;51.080;13.712;2023-11-19T09:34:10;99610.31;;;23.96;36.07
6453;BME280;3259;51.080;13.712;2023-11-19T09:36:59;99606.22;;;23.93;36.06
6453;BME280;3259;51.080;13.712;2023-11-19T09:39:48;99602.13;;;23.91;36.04
6453;BME280;3259;51.080;13.712;2023-11-19T09:42:43;99602.53;;;23.88;35.77
6453;BME280;3259;51.080;13.712;2023-11-19T09:45:44;99603.34;;;23.82;36.32
6453;BME280;3259;51.080;13.712;2023-11-19T09:48:36;99616.28;;;23.85;36.33
6453;BME280;3259;51.080;13.712;2023-11-19T09:51:26;99610.53;;;23.75;36.20
6453;BME280;3259;51.080;13.712;2023-11-19T09:54:16;99604.81;;;23.78;36.50
6453;BME280;3259;51.080;13.712;2023-11-19T09:57:06;99595.19;;;23.77;36.39
6453;BME280;3259;51.080;13.712;2023-11-19T09:59:57;99590.66;;;23.84;36.31
6453;BME280;3259;51.080;13.712;2023-11-19T10:02:46;99590.66;;;23.84;36.34
6453;BME280;3259;51.080;13.712;2023-11-19T10:05:37;99595.19;;;23.77;36.62
6453;BME280;3259;51.080;13.712;2023-11-19T10:08:28;99587.78;;;23.79;36.78
6453;BME280;3259;51.080;13.712;2023-11-19T10:11:17;99591.69;;;23.89;36.27
6453;BME280;3259;51.080;13.712;2023-11-19T10:14:06;99564.44;;;23.81;36.41
6453;BME280;3259;51.080;13.712;2023-11-19T10:16:55;99566.50;;;23.85;36.14
6453;BME280;3259;51.080;13.712;2023-11-19T10:19:44;99565.25;;;23.88;36.34
6453;BME280;3259;51.080;13.712;2023-11-19T10:22:36;99573.41;;;24.06;36.16
6453;BME280;3259;51.080;13.712;2023-11-19T10:25:27;99562.91;;;24.11;35.89
6453;BME280;3259;51.080;13.712;2023-11-19T10:28:16;99570.72;;;24.12;36.15
6453;BME280;3259;51.080;13.712;2023-11-19T10:31:05;99579.97;;;24.03;36.38
6453;BME280;3259;51.080;13.712;2023-11-19T10:33:54;99578.72;;;24.06;36.34
6453;BME280;3259;51.080;13.712;2023-11-19T10:36:43;99565.41;;;24.06;36.36
6453;BME280;3259;51.080;13.712;2023-11-19T10:39:51;99572.19;;;24.02;36.45
6453;BME280;3259;51.080;13.712;2023-11-19T10:42:43;99575.06;;;23.94;36.25
6453;BME280;3259;51.080;13.712;2023-11-19T10:45:32;99562.38;;;23.83;36.60
6453;BME280;3259;51.080;13.712;2023-11-19T10:48:21;99564.22;;;23.76;37.14
6453;BME280;3259;51.080;13.712;2023-11-19T10:51:13;99571.81;;;23.79;36.96
6453;BME280;3259;51.080;13.712;2023-11-19T10:54:09;99590.63;;;23.97;36.55
6453;BME280;3259;51.080;13.712;2023-11-19T10:56:59;99582.47;;;23.92;36.47
6453;BME280;3259;51.080;13.712;2023-11-19T10:59:55;99586.97;;;23.91;36.87
6453;BME280;3259;51.080;13.712;2023-11-19T11:02:54;99588.22;;;23.89;36.42
6453;BME280;3259;51.080;13.712;2023-11-19T11:05:46;99578.16;;;23.91;36.51
6453;BME280;3259;51.080;13.712;2023-11-19T11:08:36;99573.25;;;23.94;36.47
6453;BME280;3259;51.080;13.712;2023-11-19T11:11:26;99583.50;;;23.91;36.74
6453;BME280;3259;51.080;13.712;2023-11-19T11:14:16;99572.25;;;23.89;36.38
6453;BME280;3259;51.080;13.712;2023-11-19T11:17:11;99567.69;;;23.83;36.67
6453;BME280;3259;51.080;13.712;2023-11-19T11:20:01;99569.16;;;23.85;36.68
6453;BME280;3259;51.080;13.712;2023-11-19T11:23:01;99563.59;;;23.80;36.70
6453;BME280;3259;51.080;13.712;2023-11-19T11:26:02;99575.50;;;23.78;37.01
6453;BME280;3259;51.080;13.712;2023-11-19T11:29:01;99588.41;;;23.81;36.95
6453;BME280;3259;51.080;13.712;2023-11-19T11:31:59;99587.19;;;23.90;36.66
6453;BME280;3259;51.080;13.712;2023-11-19T11:35:08;99582.88;;;23.89;36.73
6453;BME280;3259;51.080;13.712;2023-11-19T11:38:04;99579.22;;;23.83;36.68
6453;BME280;3259;51.080;13.712;2023-11-19T11:41:15;99573.03;;;23.83;36.86
6453;BME280;3259;51.080;13.712;2023-11-19T11:44:06;99572.63;;;23.86;36.76
6453;BME280;3259;51.080;13.712;2023-11-19T11:46:56;99571.81;;;23.92;36.71
6453;BME280;3259;51.080;13.712;2023-11-19T11:49:45;99579.19;;;23.90;37.02
6453;BME280;3259;51.080;13.712;2023-11-19T11:55:59;99582.47;;;23.85;37.30
6453;BME280;3259;51.080;13.712;2023-11-19T11:58:49;99577.75;;;23.94;36.96
6453;BME280;3259;51.080;13.712;2023-11-19T12:01:38;99571.38;;;23.95;36.75
6453;BME280;3259;51.080;13.712;2023-11-19T12:04:26;99575.50;;;23.91;37.11
6453;BME280;3259;51.080;13.712;2023-11-19T12:07:18;99569.94;;;23.99;36.89
6453;BME280;3259;51.080;13.712;2023-11-19T12:10:09;99571.56;;;24.06;37.00
6453;BME280;3259;51.080;13.712;2023-11-19T12:12:59;99567.25;;;23.99;36.90
6453;BME280;3259;51.080;13.712;2023-11-19T12:16:07;99560.88;;;24.13;36.73
6453;BME280;3259;51.080;13.712;2023-11-19T12:18:56;99558.22;;;24.13;36.81
6453;BME280;3259;51.080;13.712;2023-11-19T12:21:45;99558.00;;;24.08;36.81
6453;BME280;3259;51.080;13.712;2023-11-19T12:24:33;99542.25;;;24.06;36.71
6453;BME280;3259;51.080;13.712;2023-11-19T12:27:24;99537.19;;;23.92;36.94
6453;BME280;3259;51.080;13.712;2023-11-19T12:30:21;99533.91;;;23.90;37.18
6453;BME280;3259;51.080;13.712;2023-11-19T12:33:11;99534.03;;;24.08;36.99
6453;BME280;3259;51.080;13.712;2023-11-19T12:36:00;99538.34;;;24.09;37.02
6453;BME280;3259;51.080;13.712;2023-11-19T12:38:52;99531.56;;;24.13;36.69
6453;BME280;3259;51.080;13.712;2023-11-19T12:41:52;99520.66;;;24.21;36.75
6453;BME280;3259;51.080;13.712;2023-11-19T12:44:54;99524.34;;;24.20;36.61
6453;BME280;3259;51.080;13.712;2023-11-19T12:47:44;99524.34;;;24.20;36.89
6453;BME280;3259;51.080;13.712;2023-11-19T12:50:52;99516.34;;;24.20;36.99
6453;BME280;3259;51.080;13.712;2023-11-19T12:53:48;99520.84;;;24.26;36.37
6453;BME280;3259;51.080;13.712;2023-11-19T12:56:37;99516.28;;;24.33;36.69
6453;BME280;3259;51.080;13.712;2023-11-19T12:59:28;99512.78;;;24.39;36.74
6453;BME280;3259;51.080;13.712;2023-11-19T13:02:18;99516.63;;;24.43;36.59
6453;BME280;3259;51.080;13.712;2023-11-19T13:05:23;99515.44;;;24.39;36.30
6453;BME280;3259;51.080;13.712;2023-11-19T13:08:13;99519.94;;;24.38;36.56
6453;BME280;3259;51.080;13.712;2023-11-19T13:11:01;99526.53;;;24.36;36.85
6453;BME280;3259;51.080;13.712;2023-11-19T13:13:57;99515.44;;;24.39;36.86
6453;BME280;3259;51.080;13.712;2023-11-19T13:16:47;99508.47;;;24.38;36.35
6453;BME280;3259;51.080;13.712;2023-11-19T13:19:37;99508.03;;;24.41;36.73
6453;BME280;3259;51.080;13.712;2023-11-19T13:22:26;99505.03;;;24.31;36.79
6453;BME280;3259;51.080;13.712;2023-11-19T13:25:14;99507.25;;;24.34;36.62
6453;BME280;3259;51.080;13.712;2023-11-19T13:28:03;99507.69;;;24.31;36.81
6453;BME280;3259;51.080;13.712;2023-11-19T13:30:52;99504.00;;;24.32;36.54
6453;BME280;3259;51.080;13.712;2023-11-19T13:33:42;99507.38;;;24.14;37.17
6453;BME280;3259;51.080;13.712;2023-11-19T13:36:32;99507.75;;;24.18;37.20
6453;BME280;3259;51.080;13.712;2023-11-19T13:39:21;99513.09;;;24.18;37.16
6453;BME280;3259;51.080;13.712;2023-11-19T13:42:10;99498.97;;;24.11;37.00
6453;BME280;3259;51.080;13.712;2023-11-19T13:45:00;99499.81;;;24.11;37.05
6453;BME280;3259;51.080;13.712;2023-11-19T13:47:50;99503.06;;;24.13;37.43
6453;BME280;3259;51.080;13.712;2023-11-19T13:50:38;99502.88;;;24.15;37.18
6453;BME280;3259;51.080;13.712;2023-11-19T13:53:30;99510.63;;;24.16;37.16
6453;BME280;3259;51.080;13.712;2023-11-19T13:56:36;99511.25;;;24.12;37.02
6453;BME280;3259;51.080;13.712;2023-11-19T13:59:25;99522.13;;;24.17;37.04
6453;BME280;3259;51.080;13.712;2023-11-19T14:02:14;99523.38;;;24.08;37.41
6453;BME280;3259;51.080;13.712;2023-11-19T14:05:03;99515.63;;;24.06;37.36
6453;BME280;3259;51.080;13.712;2023-11-19T14:07:52;99520.91;;;24.13;37.64
6453;BME280;3259;51.080;13.712;2023-11-19T14:10:44;99522.94;;;24.11;37.20
6453;BME280;3259;51.080;13.712;2023-11-19T14:13:33;99521.28;;;24.16;37.10
6453;BME280;3259;51.080;13.712;2023-11-19T14:16:26;99524.78;;;24.17;36.92
6453;BME280;3259;51.080;13.712;2023-11-19T14:19:15;99532.78;;;24.17;37.16
6453;BME280;3259;51.080;13.712;2023-11-19T14:22:03;99531.13;;;24.16;37.33
6453;BME280;3259;51.080;13.712;2023-11-19T14:24:52;99535.25;;;24.12;36.96
6453;BME280;3259;51.080;13.712;2023-11-19T14:27:44;99538.94;;;24.11;37.44
6453;BME280;3259;51.080;13.712;2023-11-19T14:30:33;99529.94;;;24.05;37.58
6453;BME280;3259;51.080;13.712;2023-11-19T14:33:22;99533.25;;;24.07;37.49
6453;BME280;3259;51.080;13.712;2023-11-19T14:36:11;99538.16;;;24.04;37.55
6453;BME280;3259;51.080;13.712;2023-11-19T14:39:00;99535.88;;;24.14;37.12
6453;BME280;3259;51.080;13.712;2023-11-19T14:41:51;99541.19;;;24.14;36.88
6453;BME280;3259;51.080;13.712;2023-11-19T14:44:42;99538.53;;;24.14;37.06
6453;BME280;3259;51.080;13.712;2023-11-19T14:47:30;99533.81;;;24.16;36.84
6453;BME280;3259;51.080;13.712;2023-11-19T14:50:19;99523.75;;;24.18;37.04
6453;BME280;3259;51.080;13.712;2023-11-19T14:53:08;99529.50;;;24.15;37.01
6453;BME280;3259;51.080;13.712;2023-11-19T14:55:56;99536.03;;;24.19;36.95
6453;BME280;3259;51.080;13.712;2023-11-19T14:58:45;99534.00;;;24.14;36.90
6453;BME280;3259;51.080;13.712;2023-11-19T15:01:35;99533.53;;;24.24;36.92
6453;BME280;3259;51.080;13.712;2023-11-19T15:04:24;99525.31;;;24.32;36.69
6453;BME280;3259;51.080;13.712;2023-11-19T15:07:13;99522.03;;;24.30;36.71
6453;BME280;3259;51.080;13.712;2023-11-19T15:10:02;99528.56;;;24.34;36.46
6453;BME280;3259;51.080;13.712;2023-11-19T15:12:56;99529.00;;;24.31;36.83
6453;BME280;3259;51.080;13.712;2023-11-19T15:15:45;99533.91;;;24.34;36.88